sensor_id;sensor_type;location;lat;lon;timestamp;temperature;humidity
57709;SHT35;42558;52.388;13.390;2023-05-19T00:01:50;9.31;69.90
57709;SHT35;42558;52.388;13.390;2023-05-19T00:04:21;9.28;70.00
57709;SHT35;42558;52.388;13.390;2023-05-19T00:06:51;9.24;70.20
57709;SHT35;42558;52.388;13.390;2023-05-19T00:09:22;9.17;70.26
57709;SHT35;42558;52.388;13.390;2023-05-19T00:11:52;9.09;70.54
57709;SHT35;42558;52.388;13.390;2023-05-19T00:14:22;9.07;70.51
57709;SHT35;42558;52.388;13.390;2023-05-19T00:16:53;9.06;70.58
57709;SHT35;42558;52.388;13.390;2023-05-19T00:19:24;8.99;70.71
57709;SHT35;42558;52.388;13.390;2023-05-19T00:21:54;8.94;70.88
57709;SHT35;42558;52.388;13.390;2023-05-19T00:24:24;8.90;70.90
57709;SHT35;42558;52.388;13.390;2023-05-19T00:26:52;8.87;71.09
57709;SHT35;42558;52.388;13.390;2023-05-19T00:29:21;8.81;71.33
57709;SHT35;42558;52.388;13.390;2023-05-19T00:31:49;8.76;71.47
57709;SHT35;42558;52.388;13.390;2023-05-19T00:34:18;8.76;71.47
57709;SHT35;42558;52.388;13.390;2023-05-19T00:36:46;8.75;71.51
57709;SHT35;42558;52.388;13.390;2023-05-19T00:39:15;8.71;71.66
57709;SHT35;42558;52.388;13.390;2023-05-19T00:41:43;8.71;71.71
57709;SHT35;42558;52.388;13.390;2023-05-19T00:44:12;8.69;71.78
57709;SHT35;42558;52.388;13.390;2023-05-19T00:46:40;8.66;71.61
57709;SHT35;42558;52.388;13.390;2023-05-19T00:49:08;8.64;71.62
57709;SHT35;42558;52.388;13.390;2023-05-19T00:51:37;8.59;71.90
57709;SHT35;42558;52.388;13.390;2023-05-19T00:54:08;8.56;71.99
57709;SHT35;42558;52.388;13.390;2023-05-19T00:56:39;8.53;71.90
57709;SHT35;42558;52.388;13.390;2023-05-19T00:59:09;8.48;72.19
57709;SHT35;42558;52.388;13.390;2023-05-19T01:01:39;8.41;72.50
57709;SHT35;42558;52.388;13.390;2023-05-19T01:04:09;8.39;72.60
57709;SHT35;42558;52.388;13.390;2023-05-19T01:06:39;8.34;72.69
57709;SHT35;42558;52.388;13.390;2023-05-19T01:09:09;8.33;72.54
57709;SHT35;42558;52.388;13.390;2023-05-19T01:11:39;8.27;72.67
57709;SHT35;42558;52.388;13.390;2023-05-19T01:14:09;8.25;72.91
57709;SHT35;42558;52.388;13.390;2023-05-19T01:16:39;8.24;72.86
57709;SHT35;42558;52.388;13.390;2023-05-19T01:25:44;8.07;73.34
57709;SHT35;42558;52.388;13.390;2023-05-19T01:31:31;8.06;73.46
57709;SHT35;42558;52.388;13.390;2023-05-19T01:34:04;8.09;73.46
57709;SHT35;42558;52.388;13.390;2023-05-19T01:36:36;8.12;73.43
57709;SHT35;42558;52.388;13.390;2023-05-19T01:39:07;8.13;73.22
57709;SHT35;42558;52.388;13.390;2023-05-19T01:41:37;8.12;73.07
57709;SHT35;42558;52.388;13.390;2023-05-19T01:44:11;8.10;73.09
57709;SHT35;42558;52.388;13.390;2023-05-19T01:46:41;8.06;73.12
57709;SHT35;42558;52.388;13.390;2023-05-19T01:49:12;8.03;73.14
57709;SHT35;42558;52.388;13.390;2023-05-19T01:51:42;8.05;73.17
57709;SHT35;42558;52.388;13.390;2023-05-19T01:54:12;8.02;73.09
57709;SHT35;42558;52.388;13.390;2023-05-19T01:56:51;8.00;73.18
57709;SHT35;42558;52.388;13.390;2023-05-19T02:00:02;7.94;73.40
57709;SHT35;42558;52.388;13.390;2023-05-19T02:14:30;7.74;73.88
57709;SHT35;42558;52.388;13.390;2023-05-19T02:17:07;7.69;73.89
57709;SHT35;42558;52.388;13.390;2023-05-19T02:19:42;7.68;73.97
57709;SHT35;42558;52.388;13.390;2023-05-19T02:22:13;7.67;74.06
57709;SHT35;42558;52.388;13.390;2023-05-19T02:24:43;7.67;74.09
57709;SHT35;42558;52.388;13.390;2023-05-19T02:27:15;7.65;74.19
57709;SHT35;42558;52.388;13.390;2023-05-19T02:29:44;7.59;74.40
57709;SHT35;42558;52.388;13.390;2023-05-19T02:32:14;7.53;74.58
57709;SHT35;42558;52.388;13.390;2023-05-19T02:34:44;7.50;74.53
57709;SHT35;42558;52.388;13.390;2023-05-19T02:37:14;7.49;74.63
57709;SHT35;42558;52.388;13.390;2023-05-19T02:39:44;7.49;74.61
57709;SHT35;42558;52.388;13.390;2023-05-19T02:42:14;7.47;74.75
57709;SHT35;42558;52.388;13.390;2023-05-19T02:44:46;7.47;74.73
57709;SHT35;42558;52.388;13.390;2023-05-19T02:47:17;7.47;74.67
57709;SHT35;42558;52.388;13.390;2023-05-19T02:49:47;7.48;74.58
57709;SHT35;42558;52.388;13.390;2023-05-19T02:52:16;7.49;74.59
57709;SHT35;42558;52.388;13.390;2023-05-19T02:54:46;7.52;74.65
57709;SHT35;42558;52.388;13.390;2023-05-19T02:57:16;7.52;74.58
57709;SHT35;42558;52.388;13.390;2023-05-19T02:59:46;7.53;74.49
57709;SHT35;42558;52.388;13.390;2023-05-19T03:02:16;7.56;74.64
57709;SHT35;42558;52.388;13.390;2023-05-19T03:04:46;7.61;74.56
57709;SHT35;42558;52.388;13.390;2023-05-19T03:07:16;7.66;74.58
57709;SHT35;42558;52.388;13.390;2023-05-19T03:09:46;7.70;74.41
57709;SHT35;42558;52.388;13.390;2023-05-19T03:12:17;7.72;74.14
57709;SHT35;42558;52.388;13.390;2023-05-19T03:14:46;7.74;73.87
57709;SHT35;42558;52.388;13.390;2023-05-19T03:17:14;7.73;73.77
57709;SHT35;42558;52.388;13.390;2023-05-19T03:19:42;7.71;73.87
57709;SHT35;42558;52.388;13.390;2023-05-19T03:22:11;7.70;73.91
57709;SHT35;42558;52.388;13.390;2023-05-19T03:24:40;7.69;74.01
57709;SHT35;42558;52.388;13.390;2023-05-19T03:27:08;7.70;74.10
57709;SHT35;42558;52.388;13.390;2023-05-19T03:29:40;7.72;74.15
57709;SHT35;42558;52.388;13.390;2023-05-19T03:32:10;7.74;74.22
57709;SHT35;42558;52.388;13.390;2023-05-19T03:34:40;7.76;74.12
57709;SHT35;42558;52.388;13.390;2023-05-19T03:37:09;7.77;74.18
57709;SHT35;42558;52.388;13.390;2023-05-19T03:39:38;7.78;74.15
57709;SHT35;42558;52.388;13.390;2023-05-19T03:42:07;7.78;74.09
57709;SHT35;42558;52.388;13.390;2023-05-19T03:44:41;7.82;74.00
57709;SHT35;42558;52.388;13.390;2023-05-19T03:47:11;7.87;73.92
57709;SHT35;42558;52.388;13.390;2023-05-19T03:49:41;7.88;73.81
57709;SHT35;42558;52.388;13.390;2023-05-19T03:52:11;7.90;74.14
57709;SHT35;42558;52.388;13.390;2023-05-19T03:54:41;7.96;73.84
57709;SHT35;42558;52.388;13.390;2023-05-19T03:57:11;8.02;73.53
57709;SHT35;42558;52.388;13.390;2023-05-19T03:59:42;8.09;73.33
57709;SHT35;42558;52.388;13.390;2023-05-19T04:02:13;8.17;73.30
57709;SHT35;42558;52.388;13.390;2023-05-19T04:04:42;8.24;73.08
57709;SHT35;42558;52.388;13.390;2023-05-19T04:07:12;8.28;72.97
57709;SHT35;42558;52.388;13.390;2023-05-19T04:09:42;8.35;72.87
57709;SHT35;42558;52.388;13.390;2023-05-19T04:12:13;8.42;72.58
57709;SHT35;42558;52.388;13.390;2023-05-19T04:14:46;8.45;72.44
57709;SHT35;42558;52.388;13.390;2023-05-19T04:17:16;8.50;72.43
57709;SHT35;42558;52.388;13.390;2023-05-19T04:19:46;8.55;72.65
57709;SHT35;42558;52.388;13.390;2023-05-19T04:22:16;8.60;72.40
57709;SHT35;42558;52.388;13.390;2023-05-19T04:24:46;8.63;72.45
57709;SHT35;42558;52.388;13.390;2023-05-19T04:27:17;8.64;72.92
57709;SHT35;42558;52.388;13.390;2023-05-19T04:29:47;8.69;72.66
57709;SHT35;42558;52.388;13.390;2023-05-19T04:32:18;8.73;72.44
57709;SHT35;42558;52.388;13.390;2023-05-19T04:34:47;8.76;72.19
57709;SHT35;42558;52.388;13.390;2023-05-19T04:37:17;8.84;72.22
57709;SHT35;42558;52.388;13.390;2023-05-19T04:39:48;8.89;72.10
57709;SHT35;42558;52.388;13.390;2023-05-19T04:42:18;8.91;72.05
57709;SHT35;42558;52.388;13.390;2023-05-19T04:44:48;8.91;71.76
57709;SHT35;42558;52.388;13.390;2023-05-19T04:47:20;8.96;71.72
57709;SHT35;42558;52.388;13.390;2023-05-19T04:49:50;9.06;72.02
57709;SHT35;42558;52.388;13.390;2023-05-19T04:52:24;9.10;71.81
57709;SHT35;42558;52.388;13.390;2023-05-19T04:54:53;9.09;71.68
57709;SHT35;42558;52.388;13.390;2023-05-19T04:57:23;9.08;71.63
57709;SHT35;42558;52.388;13.390;2023-05-19T04:59:53;9.17;71.77
57709;SHT35;42558;52.388;13.390;2023-05-19T05:02:28;9.19;71.83
57709;SHT35;42558;52.388;13.390;2023-05-19T05:04:58;9.24;71.64
57709;SHT35;42558;52.388;13.390;2023-05-19T05:07:28;9.27;71.63
57709;SHT35;42558;52.388;13.390;2023-05-19T05:10:00;9.39;71.89
57709;SHT35;42558;52.388;13.390;2023-05-19T05:12:30;9.47;71.39
57709;SHT35;42558;52.388;13.390;2023-05-19T05:15:01;9.48;71.23
57709;SHT35;42558;52.388;13.390;2023-05-19T05:17:32;9.48;71.56
57709;SHT35;42558;52.388;13.390;2023-05-19T05:20:04;9.60;71.75
57709;SHT35;42558;52.388;13.390;2023-05-19T05:22:35;9.68;71.91
57709;SHT35;42558;52.388;13.390;2023-05-19T05:25:07;9.78;71.87
57709;SHT35;42558;52.388;13.390;2023-05-19T05:27:38;9.89;71.44
57709;SHT35;42558;52.388;13.390;2023-05-19T05:30:08;10.04;71.49
57709;SHT35;42558;52.388;13.390;2023-05-19T05:32:38;10.15;71.16
57709;SHT35;42558;52.388;13.390;2023-05-19T05:35:08;10.14;71.04
57709;SHT35;42558;52.388;13.390;2023-05-19T05:37:38;10.20;70.82
57709;SHT35;42558;52.388;13.390;2023-05-19T05:40:08;10.36;71.26
57709;SHT35;42558;52.388;13.390;2023-05-19T05:42:39;10.46;70.32
57709;SHT35;42558;52.388;13.390;2023-05-19T05:45:10;10.49;69.96
57709;SHT35;42558;52.388;13.390;2023-05-19T05:47:40;10.47;70.56
57709;SHT35;42558;52.388;13.390;2023-05-19T05:50:11;10.54;70.75
57709;SHT35;42558;52.388;13.390;2023-05-19T05:52:43;10.72;70.63
57709;SHT35;42558;52.388;13.390;2023-05-19T05:55:16;10.93;69.79
57709;SHT35;42558;52.388;13.390;2023-05-19T05:57:47;11.38;68.96
57709;SHT35;42558;52.388;13.390;2023-05-19T06:00:19;11.81;67.97
57709;SHT35;42558;52.388;13.390;2023-05-19T06:02:50;12.10;67.10
57709;SHT35;42558;52.388;13.390;2023-05-19T06:05:20;12.38;66.26
57709;SHT35;42558;52.388;13.390;2023-05-19T06:07:50;12.40;65.89
57709;SHT35;42558;52.388;13.390;2023-05-19T06:10:20;11.98;66.35
57709;SHT35;42558;52.388;13.390;2023-05-19T06:12:52;12.00;66.80
57709;SHT35;42558;52.388;13.390;2023-05-19T06:15:20;12.52;66.91
57709;SHT35;42558;52.388;13.390;2023-05-19T06:17:49;12.47;65.99
57709;SHT35;42558;52.388;13.390;2023-05-19T06:20:17;12.62;65.92
57709;SHT35;42558;52.388;13.390;2023-05-19T06:22:45;12.75;65.48
57709;SHT35;42558;52.388;13.390;2023-05-19T06:25:14;13.21;65.29
57709;SHT35;42558;52.388;13.390;2023-05-19T06:27:42;13.42;64.12
57709;SHT35;42558;52.388;13.390;2023-05-19T06:30:11;13.22;64.49
57709;SHT35;42558;52.388;13.390;2023-05-19T06:32:39;13.10;65.01
57709;SHT35;42558;52.388;13.390;2023-05-19T06:35:09;13.49;64.77
57709;SHT35;42558;52.388;13.390;2023-05-19T06:37:39;13.74;63.54
57709;SHT35;42558;52.388;13.390;2023-05-19T06:40:09;13.79;63.70
57709;SHT35;42558;52.388;13.390;2023-05-19T06:42:40;14.02;63.31
57709;SHT35;42558;52.388;13.390;2023-05-19T06:45:11;14.14;62.71
57709;SHT35;42558;52.388;13.390;2023-05-19T06:47:41;14.21;63.16
57709;SHT35;42558;52.388;13.390;2023-05-19T06:50:12;14.52;62.40
57709;SHT35;42558;52.388;13.390;2023-05-19T06:52:43;14.44;61.97
57709;SHT35;42558;52.388;13.390;2023-05-19T06:55:15;14.83;62.18
57709;SHT35;42558;52.388;13.390;2023-05-19T06:57:45;15.21;60.93
57709;SHT35;42558;52.388;13.390;2023-05-19T07:00:15;15.17;59.68
57709;SHT35;42558;52.388;13.390;2023-05-19T07:02:50;14.68;62.01
57709;SHT35;42558;52.388;13.390;2023-05-19T07:05:20;15.24;60.34
57709;SHT35;42558;52.388;13.390;2023-05-19T07:07:50;15.70;60.70
57709;SHT35;42558;52.388;13.390;2023-05-19T07:10:20;16.10;58.18
57709;SHT35;42558;52.388;13.390;2023-05-19T07:12:50;15.47;58.87
57709;SHT35;42558;52.388;13.390;2023-05-19T07:15:20;15.62;59.34
57709;SHT35;42558;52.388;13.390;2023-05-19T07:17:50;15.94;58.54
57709;SHT35;42558;52.388;13.390;2023-05-19T07:20:20;16.22;57.78
57709;SHT35;42558;52.388;13.390;2023-05-19T07:22:50;16.17;56.94
57709;SHT35;42558;52.388;13.390;2023-05-19T07:25:19;16.19;57.81
57709;SHT35;42558;52.388;13.390;2023-05-19T07:27:50;16.29;57.59
57709;SHT35;42558;52.388;13.390;2023-05-19T07:30:19;15.88;57.50
57709;SHT35;42558;52.388;13.390;2023-05-19T07:32:49;16.13;57.48
57709;SHT35;42558;52.388;13.390;2023-05-19T07:35:19;16.16;57.92
57709;SHT35;42558;52.388;13.390;2023-05-19T07:37:53;16.46;56.13
57709;SHT35;42558;52.388;13.390;2023-05-19T07:40:23;16.97;56.44
57709;SHT35;42558;52.388;13.390;2023-05-19T07:42:53;17.50;55.03
57709;SHT35;42558;52.388;13.390;2023-05-19T07:45:23;18.16;54.12
57709;SHT35;42558;52.388;13.390;2023-05-19T07:47:53;18.39;52.95
57709;SHT35;42558;52.388;13.390;2023-05-19T07:50:23;17.94;52.84
57709;SHT35;42558;52.388;13.390;2023-05-19T07:52:53;17.48;53.85
57709;SHT35;42558;52.388;13.390;2023-05-19T07:55:24;17.95;53.58
57709;SHT35;42558;52.388;13.390;2023-05-19T07:57:54;17.56;52.69
57709;SHT35;42558;52.388;13.390;2023-05-19T08:00:24;17.34;53.23
57709;SHT35;42558;52.388;13.390;2023-05-19T08:02:54;17.43;53.68
57709;SHT35;42558;52.388;13.390;2023-05-19T08:05:25;17.50;52.83
57709;SHT35;42558;52.388;13.390;2023-05-19T08:07:55;16.96;53.47
57709;SHT35;42558;52.388;13.390;2023-05-19T08:10:26;16.64;54.48
57709;SHT35;42558;52.388;13.390;2023-05-19T08:12:55;16.59;55.32
57709;SHT35;42558;52.388;13.390;2023-05-19T08:15:25;16.87;55.16
57709;SHT35;42558;52.388;13.390;2023-05-19T08:17:55;17.04;54.58
57709;SHT35;42558;52.388;13.390;2023-05-19T08:20:25;17.59;53.34
57709;SHT35;42558;52.388;13.390;2023-05-19T08:22:55;17.51;53.00
57709;SHT35;42558;52.388;13.390;2023-05-19T08:25:25;18.09;51.76
57709;SHT35;42558;52.388;13.390;2023-05-19T08:27:55;18.26;51.09
57709;SHT35;42558;52.388;13.390;2023-05-19T08:30:25;18.59;52.06
57709;SHT35;42558;52.388;13.390;2023-05-19T08:32:55;19.04;50.46
57709;SHT35;42558;52.388;13.390;2023-05-19T08:35:24;19.01;50.32
57709;SHT35;42558;52.388;13.390;2023-05-19T08:37:55;18.65;50.84
57709;SHT35;42558;52.388;13.390;2023-05-19T08:40:25;17.95;51.55
57709;SHT35;42558;52.388;13.390;2023-05-19T08:43:00;18.75;51.30
57709;SHT35;42558;52.388;13.390;2023-05-19T08:45:30;18.94;49.80
57709;SHT35;42558;52.388;13.390;2023-05-19T08:48:03;18.92;49.75
57709;SHT35;42558;52.388;13.390;2023-05-19T08:50:34;19.31;49.59
57709;SHT35;42558;52.388;13.390;2023-05-19T08:53:11;18.78;48.15
57709;SHT35;42558;52.388;13.390;2023-05-19T08:56:13;18.76;49.04
57709;SHT35;42558;52.388;13.390;2023-05-19T08:58:50;18.51;49.07
57709;SHT35;42558;52.388;13.390;2023-05-19T09:01:20;18.88;49.26
57709;SHT35;42558;52.388;13.390;2023-05-19T09:03:52;19.63;48.38
57709;SHT35;42558;52.388;13.390;2023-05-19T09:06:22;19.98;45.53
57709;SHT35;42558;52.388;13.390;2023-05-19T09:08:54;19.95;45.99
57709;SHT35;42558;52.388;13.390;2023-05-19T09:11:24;20.03;44.66
57709;SHT35;42558;52.388;13.390;2023-05-19T09:13:54;19.14;46.52
57709;SHT35;42558;52.388;13.390;2023-05-19T09:16:24;18.90;46.76
57709;SHT35;42558;52.388;13.390;2023-05-19T09:18:57;19.19;48.00
57709;SHT35;42558;52.388;13.390;2023-05-19T09:21:31;19.26;47.22
57709;SHT35;42558;52.388;13.390;2023-05-19T09:24:04;19.60;47.32
57709;SHT35;42558;52.388;13.390;2023-05-19T09:26:40;19.55;45.26
57709;SHT35;42558;52.388;13.390;2023-05-19T09:29:11;18.67;47.14
57709;SHT35;42558;52.388;13.390;2023-05-19T09:31:49;18.65;47.96
57709;SHT35;42558;52.388;13.390;2023-05-19T09:34:29;19.47;46.83
57709;SHT35;42558;52.388;13.390;2023-05-19T09:36:59;19.95;45.11
57709;SHT35;42558;52.388;13.390;2023-05-19T09:39:29;20.17;43.95
57709;SHT35;42558;52.388;13.390;2023-05-19T09:41:59;19.51;43.99
57709;SHT35;42558;52.388;13.390;2023-05-19T09:44:36;18.81;46.23
57709;SHT35;42558;52.388;13.390;2023-05-19T09:47:03;18.93;45.90
57709;SHT35;42558;52.388;13.390;2023-05-19T09:49:30;18.91;45.42
57709;SHT35;42558;52.388;13.390;2023-05-19T09:52:01;18.59;46.24
57709;SHT35;42558;52.388;13.390;2023-05-19T09:54:32;18.56;46.54
57709;SHT35;42558;52.388;13.390;2023-05-19T09:57:02;18.34;46.87
57709;SHT35;42558;52.388;13.390;2023-05-19T09:59:35;18.14;47.69
57709;SHT35;42558;52.388;13.390;2023-05-19T10:02:08;18.43;48.60
57709;SHT35;42558;52.388;13.390;2023-05-19T10:04:45;18.38;46.90
57709;SHT35;42558;52.388;13.390;2023-05-19T10:07:18;18.48;47.70
57709;SHT35;42558;52.388;13.390;2023-05-19T10:09:49;18.52;47.22
57709;SHT35;42558;52.388;13.390;2023-05-19T10:12:21;18.61;46.58
57709;SHT35;42558;52.388;13.390;2023-05-19T10:14:54;18.52;47.01
57709;SHT35;42558;52.388;13.390;2023-05-19T10:17:25;18.48;46.19
57709;SHT35;42558;52.388;13.390;2023-05-19T10:19:56;18.24;46.92
57709;SHT35;42558;52.388;13.390;2023-05-19T10:22:28;18.24;45.55
57709;SHT35;42558;52.388;13.390;2023-05-19T10:24:58;18.40;46.00
57709;SHT35;42558;52.388;13.390;2023-05-19T10:27:28;18.57;45.23
57709;SHT35;42558;52.388;13.390;2023-05-19T10:30:11;18.72;46.07
57709;SHT35;42558;52.388;13.390;2023-05-19T10:32:47;18.57;45.47
57709;SHT35;42558;52.388;13.390;2023-05-19T10:41:09;18.04;45.65
57709;SHT35;42558;52.388;13.390;2023-05-19T10:47:05;18.10;45.99
57709;SHT35;42558;52.388;13.390;2023-05-19T10:49:37;17.99;46.09
57709;SHT35;42558;52.388;13.390;2023-05-19T10:52:21;18.33;46.22
57709;SHT35;42558;52.388;13.390;2023-05-19T10:54:54;18.77;44.88
57709;SHT35;42558;52.388;13.390;2023-05-19T10:57:24;18.69;45.79
57709;SHT35;42558;52.388;13.390;2023-05-19T10:59:54;18.74;44.74
57709;SHT35;42558;52.388;13.390;2023-05-19T11:02:35;18.99;45.24
57709;SHT35;42558;52.388;13.390;2023-05-19T11:05:15;19.48;45.11
57709;SHT35;42558;52.388;13.390;2023-05-19T11:07:57;19.31;44.63
57709;SHT35;42558;52.388;13.390;2023-05-19T11:10:36;19.11;43.82
57709;SHT35;42558;52.388;13.390;2023-05-19T11:13:07;18.39;44.13
57709;SHT35;42558;52.388;13.390;2023-05-19T11:15:51;18.30;45.26
57709;SHT35;42558;52.388;13.390;2023-05-19T11:18:21;18.50;45.48
57709;SHT35;42558;52.388;13.390;2023-05-19T11:20:54;18.41;44.38
57709;SHT35;42558;52.388;13.390;2023-05-19T11:23:36;18.76;44.54
57709;SHT35;42558;52.388;13.390;2023-05-19T11:26:08;18.72;44.24
57709;SHT35;42558;52.388;13.390;2023-05-19T11:28:38;19.11;44.30
57709;SHT35;42558;52.388;13.390;2023-05-19T11:31:09;19.15;44.24
57709;SHT35;42558;52.388;13.390;2023-05-19T11:33:40;18.40;44.56
57709;SHT35;42558;52.388;13.390;2023-05-19T11:36:10;18.48;45.25
57709;SHT35;42558;52.388;13.390;2023-05-19T11:38:41;18.34;44.52
57709;SHT35;42558;52.388;13.390;2023-05-19T11:41:14;18.11;45.62
57709;SHT35;42558;52.388;13.390;2023-05-19T11:43:47;18.50;45.34
57709;SHT35;42558;52.388;13.390;2023-05-19T11:46:16;18.88;45.26
57709;SHT35;42558;52.388;13.390;2023-05-19T11:48:47;18.71;44.45
57709;SHT35;42558;52.388;13.390;2023-05-19T11:51:19;18.95;45.28
57709;SHT35;42558;52.388;13.390;2023-05-19T11:53:49;19.09;45.36
57709;SHT35;42558;52.388;13.390;2023-05-19T11:56:22;18.96;44.99
57709;SHT35;42558;52.388;13.390;2023-05-19T11:58:52;18.51;45.86
57709;SHT35;42558;52.388;13.390;2023-05-19T12:01:23;18.46;46.33
57709;SHT35;42558;52.388;13.390;2023-05-19T12:03:55;18.60;46.68
57709;SHT35;42558;52.388;13.390;2023-05-19T12:06:25;18.90;45.95
57709;SHT35;42558;52.388;13.390;2023-05-19T12:08:57;19.10;46.76
57709;SHT35;42558;52.388;13.390;2023-05-19T12:11:27;19.19;46.10
57709;SHT35;42558;52.388;13.390;2023-05-19T12:13:57;19.25;45.25
57709;SHT35;42558;52.388;13.390;2023-05-19T12:16:31;19.08;44.85
57709;SHT35;42558;52.388;13.390;2023-05-19T12:19:04;18.71;45.00
57709;SHT35;42558;52.388;13.390;2023-05-19T12:21:35;18.63;45.66
57709;SHT35;42558;52.388;13.390;2023-05-19T12:24:05;18.49;46.16
57709;SHT35;42558;52.388;13.390;2023-05-19T12:26:36;18.16;46.46
57709;SHT35;42558;52.388;13.390;2023-05-19T12:29:06;18.20;47.40
57709;SHT35;42558;52.388;13.390;2023-05-19T12:31:36;18.22;46.69
57709;SHT35;42558;52.388;13.390;2023-05-19T12:34:06;18.30;46.35
57709;SHT35;42558;52.388;13.390;2023-05-19T12:36:36;18.32;46.78
57709;SHT35;42558;52.388;13.390;2023-05-19T12:39:07;18.70;47.54
57709;SHT35;42558;52.388;13.390;2023-05-19T12:41:37;19.19;45.80
57709;SHT35;42558;52.388;13.390;2023-05-19T12:44:14;18.95;44.95
57709;SHT35;42558;52.388;13.390;2023-05-19T12:46:44;18.28;45.63
57709;SHT35;42558;52.388;13.390;2023-05-19T12:49:14;18.31;47.03
57709;SHT35;42558;52.388;13.390;2023-05-19T12:51:51;18.50;45.62
57709;SHT35;42558;52.388;13.390;2023-05-19T12:54:22;18.78;45.72
57709;SHT35;42558;52.388;13.390;2023-05-19T12:56:52;19.43;45.18
57709;SHT35;42558;52.388;13.390;2023-05-19T12:59:22;19.56;43.11
57709;SHT35;42558;52.388;13.390;2023-05-19T13:02:07;19.05;44.82
57709;SHT35;42558;52.388;13.390;2023-05-19T13:04:37;19.11;46.22
57709;SHT35;42558;52.388;13.390;2023-05-19T13:07:07;18.79;45.94
57709;SHT35;42558;52.388;13.390;2023-05-19T13:09:37;18.68;46.04
57709;SHT35;42558;52.388;13.390;2023-05-19T13:12:07;18.92;46.50
57709;SHT35;42558;52.388;13.390;2023-05-19T13:14:41;18.66;44.77
57709;SHT35;42558;52.388;13.390;2023-05-19T13:17:10;18.51;44.84
57709;SHT35;42558;52.388;13.390;2023-05-19T13:19:40;18.42;44.94
57709;SHT35;42558;52.388;13.390;2023-05-19T13:22:08;18.56;45.34
57709;SHT35;42558;52.388;13.390;2023-05-19T13:24:38;18.73;45.96
57709;SHT35;42558;52.388;13.390;2023-05-19T13:27:06;18.86;45.45
57709;SHT35;42558;52.388;13.390;2023-05-19T13:29:36;18.81;44.73
57709;SHT35;42558;52.388;13.390;2023-05-19T13:32:05;18.39;45.03
57709;SHT35;42558;52.388;13.390;2023-05-19T13:34:33;18.49;44.94
57709;SHT35;42558;52.388;13.390;2023-05-19T13:37:02;18.90;46.03
57709;SHT35;42558;52.388;13.390;2023-05-19T13:39:32;19.29;45.05
57709;SHT35;42558;52.388;13.390;2023-05-19T13:42:02;18.75;45.12
57709;SHT35;42558;52.388;13.390;2023-05-19T13:44:33;18.53;45.91
57709;SHT35;42558;52.388;13.390;2023-05-19T13:47:03;18.60;45.91
57709;SHT35;42558;52.388;13.390;2023-05-19T13:49:34;18.86;46.34
57709;SHT35;42558;52.388;13.390;2023-05-19T13:52:04;19.12;46.69
57709;SHT35;42558;52.388;13.390;2023-05-19T13:54:35;18.61;45.70
57709;SHT35;42558;52.388;13.390;2023-05-19T13:57:05;18.78;45.84
57709;SHT35;42558;52.388;13.390;2023-05-19T13:59:35;18.69;44.80
57709;SHT35;42558;52.388;13.390;2023-05-19T14:02:21;18.39;44.80
57709;SHT35;42558;52.388;13.390;2023-05-19T14:04:50;18.32;45.19
57709;SHT35;42558;52.388;13.390;2023-05-19T14:07:18;18.25;46.08
57709;SHT35;42558;52.388;13.390;2023-05-19T14:09:46;18.22;45.98
57709;SHT35;42558;52.388;13.390;2023-05-19T14:12:15;18.60;46.46
57709;SHT35;42558;52.388;13.390;2023-05-19T14:14:43;18.64;45.32
57709;SHT35;42558;52.388;13.390;2023-05-19T14:17:12;18.71;44.97
57709;SHT35;42558;52.388;13.390;2023-05-19T14:19:40;18.64;45.42
57709;SHT35;42558;52.388;13.390;2023-05-19T14:22:08;18.47;45.17
57709;SHT35;42558;52.388;13.390;2023-05-19T14:24:37;18.42;44.96
57709;SHT35;42558;52.388;13.390;2023-05-19T14:27:05;18.93;45.46
57709;SHT35;42558;52.388;13.390;2023-05-19T14:29:34;19.28;44.30
57709;SHT35;42558;52.388;13.390;2023-05-19T14:32:02;19.74;44.63
57709;SHT35;42558;52.388;13.390;2023-05-19T14:34:34;19.80;44.31
57709;SHT35;42558;52.388;13.390;2023-05-19T14:37:02;19.30;44.72
57709;SHT35;42558;52.388;13.390;2023-05-19T14:39:32;19.12;45.02
57709;SHT35;42558;52.388;13.390;2023-05-19T14:41:59;19.18;45.02
57709;SHT35;42558;52.388;13.390;2023-05-19T14:44:31;18.89;44.91
57709;SHT35;42558;52.388;13.390;2023-05-19T14:47:01;18.80;45.33
57709;SHT35;42558;52.388;13.390;2023-05-19T14:49:32;18.65;45.56
57709;SHT35;42558;52.388;13.390;2023-05-19T14:52:02;18.70;45.47
57709;SHT35;42558;52.388;13.390;2023-05-19T14:54:32;19.18;45.69
57709;SHT35;42558;52.388;13.390;2023-05-19T14:57:02;19.89;45.16
57709;SHT35;42558;52.388;13.390;2023-05-19T14:59:35;20.00;44.25
57709;SHT35;42558;52.388;13.390;2023-05-19T15:02:06;19.88;44.95
57709;SHT35;42558;52.388;13.390;2023-05-19T15:04:36;19.78;44.18
57709;SHT35;42558;52.388;13.390;2023-05-19T15:07:06;19.39;44.95
57709;SHT35;42558;52.388;13.390;2023-05-19T15:09:37;19.30;44.84
57709;SHT35;42558;52.388;13.390;2023-05-19T15:12:06;19.34;45.80
57709;SHT35;42558;52.388;13.390;2023-05-19T15:14:40;19.13;45.19
57709;SHT35;42558;52.388;13.390;2023-05-19T15:17:10;18.67;46.72
57709;SHT35;42558;52.388;13.390;2023-05-19T15:19:40;18.47;46.77
57709;SHT35;42558;52.388;13.390;2023-05-19T15:22:11;18.41;47.32
57709;SHT35;42558;52.388;13.390;2023-05-19T15:24:41;18.88;46.25
57709;SHT35;42558;52.388;13.390;2023-05-19T15:27:11;18.97;45.76
57709;SHT35;42558;52.388;13.390;2023-05-19T15:29:41;18.94;45.98
57709;SHT35;42558;52.388;13.390;2023-05-19T15:32:10;18.74;46.08
57709;SHT35;42558;52.388;13.390;2023-05-19T15:34:40;18.35;46.78
57709;SHT35;42558;52.388;13.390;2023-05-19T15:37:10;18.10;47.42
57709;SHT35;42558;52.388;13.390;2023-05-19T15:39:40;18.17;47.44
57709;SHT35;42558;52.388;13.390;2023-05-19T15:42:10;18.11;47.40
57709;SHT35;42558;52.388;13.390;2023-05-19T15:44:44;18.11;47.37
57709;SHT35;42558;52.388;13.390;2023-05-19T15:47:14;18.07;47.75
57709;SHT35;42558;52.388;13.390;2023-05-19T15:49:44;17.76;47.42
57709;SHT35;42558;52.388;13.390;2023-05-19T15:52:14;17.64;47.72
57709;SHT35;42558;52.388;13.390;2023-05-19T15:54:44;17.62;48.31
57709;SHT35;42558;52.388;13.390;2023-05-19T15:57:15;17.75;48.56
57709;SHT35;42558;52.388;13.390;2023-05-19T15:59:44;18.15;48.14
57709;SHT35;42558;52.388;13.390;2023-05-19T16:02:14;18.57;47.14
57709;SHT35;42558;52.388;13.390;2023-05-19T16:04:44;18.72;47.20
57709;SHT35;42558;52.388;13.390;2023-05-19T16:07:14;18.85;46.44
57709;SHT35;42558;52.388;13.390;2023-05-19T16:09:45;18.45;47.55
57709;SHT35;42558;52.388;13.390;2023-05-19T16:12:15;18.35;47.49
57709;SHT35;42558;52.388;13.390;2023-05-19T16:14:44;18.32;47.67